createdAt,value
2016-09-24T00:00:27.158Z,0
2016-09-24T00:01:27.201Z,0
2016-09-24T00:02:27.267Z,0
2016-09-24T00:03:27.294Z,0
2016-09-24T00:04:27.348Z,0
2016-09-24T00:05:27.426Z,0
2016-09-24T00:06:27.478Z,0
2016-09-24T00:07:27.547Z,0
2016-09-24T00:08:27.602Z,0
2016-09-24T00:09:27.646Z,0
2016-09-24T00:10:27.682Z,0
2016-09-24T00:11:27.766Z,0
2016-09-24T00:12:27.832Z,0
2016-09-24T00:13:27.868Z,0
2016-09-24T00:14:27.962Z,0
2016-09-24T00:15:27.989Z,0
2016-09-24T00:16:28.036Z,0
2016-09-24T00:17:28.089Z,0
2016-09-24T00:18:28.341Z,0
2016-09-24T00:19:28.189Z,0
2016-09-24T00:20:28.257Z,0
2016-09-24T00:21:28.331Z,0
2016-09-24T00:22:28.389Z,0
2016-09-24T00:23:28.433Z,0
2016-09-24T00:24:28.460Z,0
2016-09-24T00:25:28.524Z,0
2016-09-24T00:26:28.588Z,0
2016-09-24T00:27:28.645Z,0
2016-09-24T00:28:28.691Z,0
2016-09-24T00:29:28.747Z,0
2016-09-24T00:30:28.815Z,0
2016-09-24T00:31:28.900Z,0
2016-09-24T00:32:28.924Z,0
2016-09-24T00:33:28.997Z,0
2016-09-24T00:34:29.071Z,0
2016-09-24T00:35:29.105Z,0
2016-09-24T00:36:29.148Z,0
2016-09-24T00:37:29.178Z,0
2016-09-24T00:38:29.285Z,0
2016-09-24T00:39:29.292Z,0
2016-09-24T00:40:29.378Z,0
2016-09-24T00:41:29.428Z,0
2016-09-24T00:42:29.487Z,0
2016-09-24T00:43:29.559Z,0
2016-09-24T00:44:29.588Z,0
2016-09-24T00:45:29.628Z,0
2016-09-24T00:46:29.708Z,0
2016-09-24T00:47:29.778Z,0
2016-09-24T00:48:29.811Z,0
2016-09-24T00:49:29.899Z,0
2016-09-24T00:50:29.904Z,0
2016-09-24T00:51:29.978Z,0
2016-09-24T00:52:30.032Z,0
2016-09-24T00:53:30.112Z,0
2016-09-24T00:54:30.145Z,0
2016-09-24T00:55:30.211Z,0
2016-09-24T00:56:30.280Z,0
2016-09-24T00:57:30.324Z,0
2016-09-24T00:58:30.353Z,0
2016-09-24T00:59:30.424Z,0
2016-09-24T01:00:30.488Z,0
2016-09-24T01:01:30.546Z,0
2016-09-24T01:02:30.591Z,0
2016-09-24T01:03:30.628Z,0
2016-09-24T01:04:30.734Z,0
2016-09-24T01:05:30.749Z,0
2016-09-24T01:06:30.814Z,0
2016-09-24T01:07:30.902Z,0
2016-09-24T01:08:30.935Z,0
2016-09-24T01:09:30.955Z,0
2016-09-24T01:10:31.045Z,0
2016-09-24T01:11:31.099Z,0
2016-09-24T01:12:31.157Z,0
2016-09-24T01:13:31.212Z,0
2016-09-24T01:14:31.279Z,0
2016-09-24T01:15:31.297Z,0
2016-09-24T01:16:31.411Z,0
2016-09-24T01:17:31.443Z,0
2016-09-24T01:18:31.492Z,0
2016-09-24T01:19:31.522Z,0
2016-09-24T01:20:31.577Z,0
2016-09-24T01:21:31.654Z,0
2016-09-24T01:22:31.678Z,0
2016-09-24T01:23:31.758Z,0
2016-09-24T01:24:31.829Z,0
2016-09-24T01:25:31.859Z,0
2016-09-24T01:26:31.956Z,0
2016-09-24T01:27:31.979Z,0
2016-09-24T01:28:32.043Z,0
2016-09-24T01:29:32.097Z,0
2016-09-24T01:30:32.131Z,0
2016-09-24T01:31:32.235Z,0
2016-09-24T01:32:32.276Z,0
2016-09-24T01:33:32.292Z,0
2016-09-24T01:34:32.349Z,0
2016-09-24T01:35:32.413Z,0
2016-09-24T01:36:32.485Z,0
2016-09-24T01:37:32.549Z,0
2016-09-24T01:38:32.623Z,0
2016-09-24T01:39:32.647Z,0
2016-09-24T01:40:32.706Z,0
2016-09-24T01:41:32.793Z,0
2016-09-24T01:42:32.839Z,0
2016-09-24T01:43:32.857Z,0
2016-09-24T01:44:32.944Z,0
2016-09-24T01:45:32.988Z,0
2016-09-24T01:46:33.028Z,0
2016-09-24T01:47:33.113Z,0
2016-09-24T01:48:33.162Z,0
2016-09-24T01:49:33.238Z,0
2016-09-24T01:50:33.249Z,0
2016-09-24T01:51:33.349Z,0
2016-09-24T01:52:33.368Z,0
2016-09-24T01:53:33.441Z,0
2016-09-24T01:54:33.489Z,0
2016-09-24T01:55:33.540Z,0
2016-09-24T01:56:33.606Z,0
2016-09-24T01:57:33.639Z,0
2016-09-24T01:58:33.684Z,0
2016-09-24T01:59:33.762Z,0
2016-09-24T02:00:33.841Z,0
2016-09-24T02:01:33.892Z,0
2016-09-24T02:02:33.920Z,0
2016-09-24T02:03:33.982Z,0
2016-09-24T02:04:34.041Z,0
2016-09-24T02:05:34.096Z,0
2016-09-24T02:06:34.166Z,0
2016-09-24T02:07:34.219Z,0
2016-09-24T02:08:34.264Z,0
2016-09-24T02:09:34.312Z,0
2016-09-24T02:10:34.394Z,0
2016-09-24T02:11:34.442Z,0
2016-09-24T02:12:34.484Z,0
2016-09-24T02:13:34.561Z,0
2016-09-24T02:14:34.580Z,0
2016-09-24T02:15:34.675Z,0
2016-09-24T02:16:34.920Z,0
2016-09-24T02:17:34.764Z,0
2016-09-24T02:18:34.828Z,0
2016-09-24T02:19:34.887Z,0
2016-09-24T02:20:34.952Z,0
2016-09-24T02:21:34.974Z,0
2016-09-24T02:22:35.074Z,0
2016-09-24T02:23:35.094Z,0
2016-09-24T02:24:35.139Z,0
2016-09-24T02:25:35.208Z,0
2016-09-24T02:26:35.282Z,0
2016-09-24T02:27:35.351Z,0
2016-09-24T02:28:35.408Z,0
2016-09-24T02:29:35.463Z,0
2016-09-24T02:30:35.476Z,0
2016-09-24T02:31:35.553Z,0
2016-09-24T02:32:35.627Z,0
2016-09-24T02:33:35.655Z,0
2016-09-24T02:34:35.708Z,0
2016-09-24T02:35:35.764Z,0
2016-09-24T02:36:35.852Z,0
2016-09-24T02:37:35.908Z,0
2016-09-24T02:38:35.928Z,0
2016-09-24T02:39:35.992Z,0
2016-09-24T02:40:36.052Z,0
2016-09-24T02:41:36.127Z,0
2016-09-24T02:42:36.183Z,0
2016-09-24T02:43:36.206Z,0
2016-09-24T02:44:36.251Z,0
2016-09-24T02:45:36.295Z,0
2016-09-24T02:46:36.605Z,0
2016-09-24T02:47:36.448Z,0
2016-09-24T02:48:36.494Z,0
2016-09-24T02:49:36.538Z,0
2016-09-24T02:50:36.632Z,0
2016-09-24T02:51:36.653Z,0
2016-09-24T02:52:36.721Z,0
2016-09-24T02:53:36.773Z,0
2016-09-24T02:54:36.839Z,0
2016-09-24T02:55:36.872Z,0
2016-09-24T02:56:36.948Z,0
2016-09-24T02:57:36.984Z,0
2016-09-24T02:58:37.039Z,0
2016-09-24T02:59:37.102Z,0
2016-09-24T03:00:37.139Z,0
2016-09-24T03:01:37.215Z,0
2016-09-24T03:02:37.260Z,0
2016-09-24T03:03:37.297Z,0
2016-09-24T03:04:37.391Z,0
2016-09-24T03:05:37.406Z,0
2016-09-24T03:06:37.493Z,0
2016-09-24T03:07:37.547Z,0
2016-09-24T03:08:37.581Z,0
2016-09-24T03:09:37.681Z,0
2016-09-24T03:10:37.714Z,0
2016-09-24T03:11:37.749Z,0
2016-09-24T03:12:37.805Z,0
2016-09-24T03:13:37.892Z,0
2016-09-24T03:14:37.938Z,0
2016-09-24T03:15:38.191Z,0
2016-09-24T03:16:38.218Z,0
2016-09-24T03:17:38.102Z,0
2016-09-24T03:18:38.171Z,0
2016-09-24T03:19:38.205Z,0
2016-09-24T03:20:38.294Z,0
2016-09-24T03:21:38.307Z,0
2016-09-24T03:22:38.380Z,0
2016-09-24T03:23:38.438Z,0
2016-09-24T03:24:38.491Z,0
2016-09-24T03:25:38.515Z,0
2016-09-24T03:26:38.624Z,0
2016-09-24T03:27:38.647Z,0
2016-09-24T03:28:38.996Z,0
2016-09-24T03:29:38.767Z,0
2016-09-24T03:30:38.795Z,0
2016-09-24T03:31:38.878Z,0
2016-09-24T03:32:38.906Z,0
2016-09-24T03:33:38.970Z,0
2016-09-24T03:34:39.027Z,0
2016-09-24T03:35:39.101Z,0
2016-09-24T03:36:39.147Z,0
2016-09-24T03:37:39.181Z,0
2016-09-24T03:38:39.293Z,0
2016-09-24T03:39:39.324Z,0
2016-09-24T03:40:39.368Z,0
2016-09-24T03:41:39.447Z,0
2016-09-24T03:42:39.504Z,0
2016-09-24T03:43:39.560Z,0
2016-09-24T03:44:39.578Z,0
2016-09-24T03:45:39.626Z,0
2016-09-24T03:46:39.894Z,0
2016-09-24T03:47:39.971Z,0
2016-09-24T03:48:39.789Z,0
2016-09-24T03:49:39.868Z,0
2016-09-24T03:50:39.921Z,0
2016-09-24T03:51:39.990Z,0
2016-09-24T03:52:40.013Z,0
2016-09-24T03:53:40.111Z,0
2016-09-24T03:54:40.135Z,0
2016-09-24T03:55:40.211Z,0
2016-09-24T03:56:40.291Z,0
2016-09-24T03:57:40.314Z,0
2016-09-24T03:58:40.402Z,0
2016-09-24T03:59:40.414Z,0
2016-09-24T04:00:40.491Z,0
2016-09-24T04:01:40.572Z,0
2016-09-24T04:02:40.578Z,0
2016-09-24T04:03:40.656Z,0
2016-09-24T04:04:40.722Z,0
2016-09-24T04:05:40.757Z,0
2016-09-24T04:06:40.813Z,0
2016-09-24T04:07:40.878Z,0
2016-09-24T04:08:40.958Z,0
2016-09-24T04:09:40.987Z,0
2016-09-24T04:10:41.047Z,0
2016-09-24T04:11:41.090Z,0
2016-09-24T04:12:41.137Z,0
2016-09-24T04:13:41.224Z,0
2016-09-24T04:14:41.270Z,0
2016-09-24T04:15:41.313Z,0
2016-09-24T04:16:41.365Z,0
2016-09-24T04:17:41.624Z,0
2016-09-24T04:18:41.683Z,0
2016-09-24T04:19:41.566Z,0
2016-09-24T04:20:41.569Z,0
2016-09-24T04:21:41.677Z,0
2016-09-24T04:22:41.723Z,0
2016-09-24T04:23:41.767Z,0
2016-09-24T04:24:41.814Z,0
2016-09-24T04:25:41.882Z,0
2016-09-24T04:26:41.900Z,0
2016-09-24T04:27:41.980Z,0
2016-09-24T04:28:42.055Z,0
2016-09-24T04:29:42.100Z,0
2016-09-24T04:30:42.157Z,0
2016-09-24T04:31:42.211Z,0
2016-09-24T04:32:42.267Z,0
2016-09-24T04:33:42.289Z,0
2016-09-24T04:34:42.369Z,0
2016-09-24T04:35:42.456Z,0
2016-09-24T04:36:42.491Z,0
2016-09-24T04:37:42.570Z,0
2016-09-24T04:38:42.605Z,0
2016-09-24T04:39:42.674Z,0
2016-09-24T04:40:42.709Z,0
2016-09-24T04:41:42.756Z,0
2016-09-24T04:42:42.831Z,0
2016-09-24T04:43:42.865Z,0
2016-09-24T04:44:42.954Z,0
2016-09-24T04:45:42.955Z,4
2016-09-24T04:46:43.046Z,4
2016-09-24T04:47:43.277Z,4
2016-09-24T04:48:43.346Z,0
2016-09-24T04:49:43.197Z,4
2016-09-24T04:50:43.256Z,4
2016-09-24T04:51:43.312Z,4
2016-09-24T04:52:43.362Z,4
2016-09-24T04:53:43.413Z,8
2016-09-24T04:54:43.476Z,4
2016-09-24T04:55:43.511Z,8
2016-09-24T04:56:43.600Z,8
2016-09-24T04:57:43.619Z,12
2016-09-24T04:58:43.712Z,12
2016-09-24T04:59:43.765Z,16
2016-09-24T05:00:43.832Z,16
2016-09-24T05:01:43.897Z,16
2016-09-24T05:02:43.922Z,20
2016-09-24T05:03:43.990Z,24
2016-09-24T05:04:44.043Z,28
2016-09-24T05:05:44.100Z,28
2016-09-24T05:06:44.154Z,32
2016-09-24T05:07:44.214Z,36
2016-09-24T05:08:44.245Z,40
2016-09-24T05:09:44.288Z,40
2016-09-24T05:10:44.368Z,48
2016-09-24T05:11:44.423Z,48
2016-09-24T05:12:44.511Z,56
2016-09-24T05:13:44.531Z,56
2016-09-24T05:14:44.637Z,60
2016-09-24T05:15:44.676Z,68
2016-09-24T05:16:44.674Z,72
2016-09-24T05:17:44.735Z,80
2016-09-24T05:18:44.821Z,84
2016-09-24T05:19:45.096Z,88
2016-09-24T05:20:44.922Z,96
2016-09-24T05:21:45.001Z,104
2016-09-24T05:22:45.046Z,108
2016-09-24T05:23:45.097Z,116
2016-09-24T05:24:45.167Z,124
2016-09-24T05:25:45.213Z,128
2016-09-24T05:26:45.261Z,140
2016-09-24T05:27:45.310Z,140
2016-09-24T05:28:45.376Z,148
2016-09-24T05:29:45.434Z,156
2016-09-24T05:30:45.472Z,164
2016-09-24T05:31:45.553Z,168
2016-09-24T05:32:45.610Z,172
2016-09-24T05:33:45.655Z,176
2016-09-24T05:34:45.738Z,180
2016-09-24T05:35:45.777Z,188
2016-09-24T05:36:45.809Z,192
2016-09-24T05:37:45.874Z,196
2016-09-24T05:38:45.933Z,204
2016-09-24T05:39:45.978Z,208
2016-09-24T05:40:46.057Z,216
2016-09-24T05:41:46.087Z,216
2016-09-24T05:42:46.154Z,224
2016-09-24T05:43:46.192Z,232
2016-09-24T05:44:46.291Z,236
2016-09-24T05:45:46.346Z,244
2016-09-24T05:46:46.348Z,252
2016-09-24T05:47:46.404Z,256
2016-09-24T05:48:46.469Z,264
2016-09-24T05:49:46.518Z,268
2016-09-24T05:50:46.620Z,276
2016-09-24T05:51:46.666Z,276
2016-09-24T05:52:46.689Z,276
2016-09-24T05:53:46.736Z,280
2016-09-24T05:54:46.820Z,288
2016-09-24T05:55:46.891Z,292
2016-09-24T05:56:46.915Z,296
2016-09-24T05:57:47.001Z,296
2016-09-24T05:58:47.017Z,304
2016-09-24T05:59:47.066Z,308
2016-09-24T06:00:47.164Z,308
2016-09-24T06:01:47.214Z,308
2016-09-24T06:02:47.297Z,308
2016-09-24T06:03:47.336Z,312
2016-09-24T06:04:47.402Z,308
2016-09-24T06:05:47.437Z,312
2016-09-24T06:06:47.477Z,324
2016-09-24T06:07:47.547Z,332
2016-09-24T06:08:47.596Z,332
2016-09-24T06:09:47.635Z,340
2016-09-24T06:10:47.743Z,344
2016-09-24T06:11:47.777Z,352
2016-09-24T06:12:47.815Z,356
2016-09-24T06:13:47.879Z,360
2016-09-24T06:14:47.925Z,368
2016-09-24T06:15:47.989Z,376
2016-09-24T06:16:48.045Z,380
2016-09-24T06:17:48.092Z,392
2016-09-24T06:18:48.137Z,396
2016-09-24T06:19:48.232Z,404
2016-09-24T06:20:48.278Z,412
2016-09-24T06:21:48.306Z,420
2016-09-24T06:22:48.391Z,424
2016-09-24T06:23:48.402Z,432
2016-09-24T06:24:48.460Z,440
2016-09-24T06:25:48.536Z,448
2016-09-24T06:26:48.593Z,452
2016-09-24T06:27:48.681Z,460
2016-09-24T06:28:48.722Z,468
2016-09-24T06:29:48.761Z,472
2016-09-24T06:30:48.824Z,484
2016-09-24T06:31:48.912Z,492
2016-09-24T06:32:48.966Z,500
2016-09-24T06:33:49.014Z,508
2016-09-24T06:34:49.062Z,520
2016-09-24T06:35:49.095Z,524
2016-09-24T06:36:49.167Z,540
2016-09-24T06:37:49.220Z,548
2016-09-24T06:38:49.270Z,556
2016-09-24T06:39:49.325Z,564
2016-09-24T06:40:49.365Z,576
2016-09-24T06:41:49.443Z,588
2016-09-24T06:42:49.488Z,600
2016-09-24T06:43:49.575Z,612
2016-09-24T06:44:49.615Z,624
2016-09-24T06:45:49.688Z,632
2016-09-24T06:46:49.742Z,644
2016-09-24T06:47:49.800Z,656
2016-09-24T06:48:49.822Z,668
2016-09-24T06:49:49.893Z,676
2016-09-24T06:50:49.945Z,688
2016-09-24T06:51:49.980Z,696
2016-09-24T06:52:50.067Z,708
2016-09-24T06:53:50.133Z,720
2016-09-24T06:54:50.190Z,732
2016-09-24T06:55:50.246Z,744
2016-09-24T06:56:50.258Z,756
2016-09-24T06:57:50.304Z,764
2016-09-24T06:58:50.388Z,776
2016-09-24T06:59:50.465Z,792
2016-09-24T07:00:50.500Z,804
2016-09-24T07:01:50.548Z,816
2016-09-24T07:02:50.614Z,828
2016-09-24T07:03:50.656Z,840
2016-09-24T07:04:50.737Z,856
2016-09-24T07:05:50.789Z,868
2016-09-24T07:06:50.849Z,880
2016-09-24T07:07:50.878Z,896
2016-09-24T07:08:50.917Z,916
2016-09-24T07:09:51.294Z,932
2016-09-24T07:10:51.061Z,952
2016-09-24T07:11:51.137Z,968
2016-09-24T07:12:51.171Z,988
2016-09-24T07:13:51.199Z,1008
2016-09-24T07:14:51.287Z,1036
2016-09-24T07:15:51.320Z,1056
2016-09-24T07:16:51.363Z,1084
2016-09-24T07:17:51.456Z,1108
2016-09-24T07:18:51.521Z,1140
2016-09-24T07:19:51.553Z,1172
2016-09-24T07:20:51.608Z,1208
2016-09-24T07:21:51.667Z,1252
2016-09-24T07:22:51.749Z,1316
2016-09-24T07:23:51.796Z,1392
2016-09-24T07:24:51.828Z,1484
2016-09-24T07:25:51.887Z,1628
2016-09-24T07:26:51.933Z,1864
2016-09-24T07:27:51.978Z,2232
2016-09-24T07:28:52.064Z,2664
2016-09-24T07:29:52.122Z,3324
2016-09-24T07:30:52.147Z,14072
2016-09-24T07:31:52.224Z,33184
2016-09-24T07:32:52.281Z,39840
2016-09-24T07:33:52.346Z,40512
2016-09-24T07:34:52.394Z,45184
2016-09-24T07:35:52.462Z,43776
2016-09-24T07:36:52.493Z,44704
2016-09-24T07:37:52.553Z,45792
2016-09-24T07:38:52.603Z,46240
2016-09-24T07:39:52.651Z,46912
2016-09-24T07:40:52.741Z,47552
2016-09-24T07:41:52.799Z,48544
2016-09-24T07:42:52.872Z,46464
2016-09-24T07:43:52.916Z,50016
2016-09-24T07:44:52.985Z,47584
2016-09-24T07:45:53.028Z,46848
2016-09-24T07:46:53.119Z,45184
2016-09-24T07:47:53.143Z,44640
2016-09-24T07:48:53.180Z,41504
2016-09-24T07:49:53.266Z,40320
2016-09-24T07:50:53.297Z,47648
2016-09-24T07:51:53.346Z,50496
2016-09-24T07:52:53.411Z,44096
2016-09-24T07:53:53.482Z,42208
2016-09-24T07:54:53.502Z,49984
2016-09-24T07:55:53.560Z,53248
2016-09-24T07:56:53.629Z,50400
2016-09-24T07:57:53.716Z,49376
2016-09-24T07:58:53.720Z,51968
2016-09-24T07:59:53.809Z,55008
2016-09-24T08:00:53.874Z,53408
2016-09-24T08:01:53.906Z,54496
2016-09-24T08:02:53.969Z,53888
2016-09-24T08:03:54.001Z,53952
2016-09-24T08:04:54.058Z,53024
2016-09-24T08:05:54.116Z,50976
2016-09-24T08:06:54.206Z,54368
2016-09-24T08:07:54.252Z,46848
2016-09-24T08:08:54.282Z,41280
2016-09-24T08:09:54.396Z,43776
2016-09-24T08:10:54.398Z,45984
2016-09-24T08:11:54.485Z,43328
2016-09-24T08:12:54.564Z,40480
2016-09-24T08:13:54.603Z,43104
2016-09-24T08:14:54.670Z,48736
2016-09-24T08:15:54.712Z,48480
2016-09-24T08:16:54.747Z,46976
2016-09-24T08:17:54.850Z,47264
2016-09-24T08:18:54.895Z,50560
2016-09-24T08:19:54.941Z,47520
2016-09-24T08:20:54.988Z,46816
2016-09-24T08:21:55.040Z,46624
2016-09-24T08:22:55.138Z,43200
2016-09-24T08:23:55.168Z,46912
2016-09-24T08:24:55.235Z,33888
2016-09-24T08:25:55.280Z,14116
2016-09-24T08:26:55.326Z,7592
2016-09-24T08:27:55.384Z,6924
2016-09-24T08:28:55.460Z,6148
2016-09-24T08:29:55.497Z,5416
2016-09-24T08:30:55.579Z,4652
2016-09-24T08:31:55.626Z,3964
2016-09-24T08:32:55.676Z,3452
2016-09-24T08:33:55.754Z,3068
2016-09-24T08:34:55.778Z,2792
2016-09-24T08:35:55.869Z,2588
2016-09-24T08:36:55.905Z,2444
2016-09-24T08:37:55.950Z,2340
2016-09-24T08:38:56.015Z,2272
2016-09-24T08:39:56.063Z,2220
2016-09-24T08:40:56.138Z,2176
2016-09-24T08:41:56.173Z,2132
2016-09-24T08:42:56.232Z,2108
2016-09-24T08:43:56.318Z,2080
2016-09-24T08:44:56.346Z,2060
2016-09-24T08:45:56.425Z,2036
2016-09-24T08:46:56.478Z,2016
2016-09-24T08:47:56.513Z,1992
2016-09-24T08:48:56.585Z,1976
2016-09-24T08:49:56.629Z,1960
2016-09-24T08:50:56.668Z,1944
2016-09-24T08:51:56.740Z,1924
2016-09-24T08:52:56.819Z,1900
2016-09-24T08:53:56.860Z,1880
2016-09-24T08:54:56.901Z,1868
2016-09-24T08:55:57.000Z,1852
2016-09-24T08:56:57.046Z,1836
2016-09-24T08:57:57.067Z,1816
2016-09-24T08:58:57.136Z,1804
2016-09-24T08:59:57.185Z,1792
2016-09-24T09:00:57.251Z,1776
2016-09-24T09:01:57.328Z,1764
2016-09-24T09:02:57.341Z,1752
2016-09-24T09:03:57.440Z,1744
2016-09-24T09:04:57.487Z,1736
2016-09-24T09:05:57.540Z,1724
2016-09-24T09:06:57.614Z,1716
2016-09-24T09:07:57.625Z,1708
2016-09-24T09:08:57.693Z,1696
2016-09-24T09:09:57.755Z,1692
2016-09-24T09:10:57.836Z,1688
2016-09-24T09:11:57.852Z,1680
2016-09-24T09:12:57.906Z,1672
2016-09-24T09:13:57.983Z,1664
2016-09-24T09:14:58.050Z,1656
2016-09-24T09:15:58.094Z,1652
2016-09-24T09:16:58.184Z,1648
2016-09-24T09:17:58.240Z,1640
2016-09-24T09:18:58.265Z,1636
2016-09-24T09:19:58.325Z,1632
2016-09-24T09:20:58.380Z,1624
2016-09-24T09:21:58.458Z,1616
2016-09-24T09:22:58.508Z,1616
2016-09-24T09:23:58.556Z,1608
2016-09-24T09:24:58.604Z,1600
2016-09-24T09:25:58.668Z,1592
2016-09-24T09:26:58.696Z,1588
2016-09-24T09:27:58.752Z,1588
2016-09-24T09:28:58.833Z,1584
2016-09-24T09:29:58.883Z,1584
2016-09-24T09:30:58.969Z,1584
2016-09-24T09:31:59.028Z,1588
2016-09-24T09:32:59.064Z,1584
2016-09-24T09:33:59.122Z,1588
2016-09-24T09:34:59.178Z,1584
2016-09-24T09:35:59.218Z,1584
2016-09-24T09:36:59.278Z,1588
2016-09-24T09:37:59.328Z,1588
2016-09-24T09:38:59.426Z,1588
2016-09-24T09:39:59.450Z,1588
2016-09-24T09:40:59.541Z,1592
2016-09-24T09:41:59.550Z,1596
2016-09-24T09:42:59.624Z,1596
2016-09-24T09:43:59.708Z,1600
2016-09-24T09:44:59.712Z,1600
2016-09-24T09:45:59.847Z,1604
2016-09-24T09:46:59.884Z,1608
2016-09-24T09:47:59.928Z,1608
2016-09-24T09:48:59.956Z,1608
2016-09-24T09:50:00.015Z,1600
2016-09-24T09:51:00.069Z,1604
2016-09-24T09:52:00.118Z,1608
2016-09-24T09:53:00.210Z,1616
2016-09-24T09:54:00.263Z,1620
2016-09-24T09:55:00.297Z,1624
2016-09-24T09:56:00.364Z,1620
2016-09-24T09:57:00.440Z,1628
2016-09-24T09:58:00.472Z,1632
2016-09-24T09:59:00.552Z,1640
2016-09-24T10:00:00.579Z,1640
2016-09-24T10:01:00.669Z,1648
2016-09-24T10:02:00.671Z,1648
2016-09-24T10:03:00.733Z,1652
2016-09-24T10:04:00.814Z,1656
2016-09-24T10:05:00.880Z,1656
2016-09-24T10:06:00.928Z,1664
2016-09-24T10:07:00.980Z,1668
2016-09-24T10:08:01.043Z,1672
2016-09-24T10:09:01.066Z,1672
2016-09-24T10:10:01.119Z,1676
2016-09-24T10:11:01.201Z,1676
2016-09-24T10:12:01.264Z,1680
2016-09-24T10:13:01.317Z,1688
2016-09-24T10:14:01.361Z,1688
2016-09-24T10:15:01.414Z,1696
2016-09-24T10:16:01.506Z,1696
2016-09-24T10:17:01.536Z,1696
2016-09-24T10:18:01.582Z,1700
2016-09-24T10:19:01.651Z,1708
2016-09-24T10:20:01.696Z,1712
2016-09-24T10:21:01.809Z,1716
2016-09-24T10:22:01.843Z,1716
2016-09-24T10:23:01.864Z,1720
2016-09-24T10:24:01.923Z,1720
2016-09-24T10:25:02.014Z,1724
2016-09-24T10:26:02.056Z,1724
2016-09-24T10:27:02.105Z,1728
2016-09-24T10:28:02.173Z,1728
2016-09-24T10:29:02.228Z,1732
2016-09-24T10:30:02.302Z,1732
2016-09-24T10:31:02.340Z,1740
2016-09-24T10:32:02.406Z,1744
2016-09-24T10:33:02.465Z,1736
2016-09-24T10:34:02.511Z,1740
2016-09-24T10:35:02.570Z,1748
2016-09-24T10:36:02.623Z,1752
2016-09-24T10:37:02.657Z,1756
2016-09-24T10:38:02.745Z,1748
2016-09-24T10:39:02.792Z,1748
2016-09-24T10:40:02.843Z,1748
2016-09-24T10:41:02.906Z,1752
2016-09-24T10:42:02.942Z,1752
2016-09-24T10:43:03.029Z,1748
2016-09-24T10:44:03.079Z,1748
2016-09-24T10:45:03.136Z,1752
2016-09-24T10:46:03.188Z,1752
2016-09-24T10:47:03.237Z,1756
2016-09-24T10:48:03.294Z,1748
2016-09-24T10:49:03.381Z,1756
2016-09-24T10:50:03.417Z,1764
2016-09-24T10:51:03.473Z,1764
2016-09-24T10:52:03.529Z,1772
2016-09-24T10:53:03.608Z,1776
2016-09-24T10:54:03.641Z,1780
2016-09-24T10:55:03.690Z,1784
2016-09-24T10:56:03.767Z,1792
2016-09-24T10:57:03.803Z,1816
2016-09-24T10:58:03.873Z,1808
2016-09-24T10:59:03.925Z,1788
2016-09-24T11:00:03.972Z,1788
2016-09-24T11:01:04.005Z,1788
2016-09-24T11:02:04.088Z,1792
2016-09-24T11:03:04.139Z,1788
2016-09-24T11:04:04.173Z,1792
2016-09-24T11:05:04.261Z,1808
2016-09-24T11:06:04.335Z,1824
2016-09-24T11:07:04.379Z,1820
2016-09-24T11:08:04.422Z,1812
2016-09-24T11:09:04.499Z,1816
2016-09-24T11:10:04.551Z,1812
2016-09-24T11:11:04.573Z,1848
2016-09-24T11:12:04.686Z,1920
2016-09-24T11:13:04.707Z,1924
2016-09-24T11:14:04.774Z,1828
2016-09-24T11:15:04.834Z,1804
2016-09-24T11:16:04.879Z,1804
2016-09-24T11:17:04.970Z,1820
2016-09-24T11:18:04.983Z,1820
2016-09-24T11:19:05.063Z,1848
2016-09-24T11:20:05.120Z,1836
2016-09-24T11:21:05.163Z,1828
2016-09-24T11:22:05.254Z,1828
2016-09-24T11:23:05.288Z,1840
2016-09-24T11:24:05.348Z,1848
2016-09-24T11:25:05.374Z,1848
2016-09-24T11:26:05.458Z,1856
2016-09-24T11:27:05.524Z,1852
2016-09-24T11:28:05.573Z,1864
2016-09-24T11:29:05.622Z,1872
2016-09-24T11:30:05.708Z,1888
2016-09-24T11:31:05.759Z,1892
2016-09-24T11:32:05.809Z,1904
2016-09-24T11:33:05.846Z,1904
2016-09-24T11:34:05.938Z,1908
2016-09-24T11:35:05.972Z,1924
2016-09-24T11:36:05.994Z,1976
2016-09-24T11:37:06.100Z,2064
2016-09-24T11:38:06.156Z,2368
2016-09-24T11:39:06.190Z,2112
2016-09-24T11:40:06.260Z,1964
2016-09-24T11:41:06.311Z,1980
2016-09-24T11:42:06.385Z,1996
2016-09-24T11:43:06.433Z,1988
2016-09-24T11:44:06.510Z,2016
2016-09-24T11:45:06.545Z,2032
2016-09-24T11:46:06.576Z,2172
2016-09-24T11:47:06.660Z,2232
2016-09-24T11:48:06.724Z,2152
2016-09-24T11:49:06.753Z,2244
2016-09-24T11:50:06.843Z,2172
2016-09-24T11:51:06.881Z,2188
2016-09-24T11:52:06.949Z,2260
2016-09-24T11:53:06.994Z,2280
2016-09-24T11:54:07.052Z,2196
2016-09-24T11:55:07.141Z,2224
2016-09-24T11:56:07.180Z,2404
2016-09-24T11:57:07.263Z,2508
2016-09-24T11:58:07.291Z,2984
2016-09-24T11:59:07.357Z,2740
2016-09-24T12:00:07.404Z,2528
2016-09-24T12:01:07.470Z,2540
2016-09-24T12:02:07.531Z,1728
2016-09-24T12:03:07.587Z,3656
2016-09-24T12:04:07.625Z,3076
2016-09-24T12:05:07.731Z,3120
2016-09-24T12:06:08.054Z,3196
2016-09-24T12:07:07.819Z,3372
2016-09-24T12:08:07.844Z,4320
2016-09-24T12:09:07.928Z,8772
2016-09-24T12:10:07.966Z,16540
2016-09-24T12:11:08.033Z,16308
2016-09-24T12:12:08.133Z,14440
2016-09-24T12:13:08.183Z,14784
2016-09-24T12:14:08.271Z,14908
2016-09-24T12:15:08.302Z,15876
2016-09-24T12:16:08.360Z,17844
2016-09-24T12:17:08.395Z,19776
2016-09-24T12:18:08.432Z,20864
2016-09-24T12:19:08.526Z,22496
2016-09-24T12:20:08.591Z,24160
2016-09-24T12:21:08.611Z,24480
2016-09-24T12:22:08.711Z,26528
2016-09-24T12:23:08.759Z,29184
2016-09-24T12:24:08.810Z,30304
2016-09-24T12:25:08.877Z,30144
2016-09-24T12:26:08.912Z,32352
2016-09-24T12:27:08.986Z,33248
2016-09-24T12:28:09.043Z,33792
2016-09-24T12:29:09.116Z,33760
2016-09-24T12:30:09.163Z,33984
2016-09-24T12:31:09.201Z,33984
2016-09-24T12:32:09.260Z,33504
2016-09-24T12:33:09.350Z,31104
2016-09-24T12:34:09.414Z,32256
2016-09-24T12:35:09.470Z,34144
2016-09-24T12:36:09.529Z,34464
2016-09-24T12:37:09.589Z,33984
2016-09-24T12:38:09.659Z,34688
2016-09-24T12:39:09.734Z,34528
2016-09-24T12:40:09.737Z,33824
2016-09-24T12:41:09.827Z,34368
2016-09-24T12:42:09.881Z,34784
2016-09-24T12:43:09.913Z,34112
2016-09-24T12:44:09.997Z,34944
2016-09-24T12:45:10.070Z,35424
2016-09-24T12:46:10.136Z,34624
2016-09-24T12:47:10.190Z,35584
2016-09-24T12:48:10.260Z,33728
2016-09-24T12:49:10.319Z,18348
2016-09-24T12:50:10.388Z,35328
2016-09-24T12:51:10.394Z,34944
2016-09-24T12:52:10.508Z,34720
2016-09-24T12:53:10.544Z,29568
2016-09-24T12:54:10.574Z,5812
2016-09-24T12:55:10.633Z,9320
2016-09-24T12:56:10.738Z,34656
2016-09-24T12:57:10.805Z,21248
2016-09-24T12:58:10.853Z,32128
2016-09-24T12:59:10.909Z,15884
2016-09-24T13:00:10.962Z,34976
2016-09-24T13:01:11.002Z,8684
2016-09-24T13:02:11.083Z,8492
2016-09-24T13:03:11.130Z,4084
2016-09-24T13:04:11.201Z,6492
2016-09-24T13:05:11.279Z,31456
2016-09-24T13:06:11.342Z,2236
2016-09-24T13:07:11.384Z,10548
2016-09-24T13:08:11.414Z,27648
2016-09-24T13:09:11.475Z,26944
2016-09-24T13:10:11.545Z,29568
2016-09-24T13:11:11.614Z,28128
2016-09-24T13:12:11.665Z,29440
2016-09-24T13:13:11.718Z,28704
2016-09-24T13:14:11.805Z,27936
2016-09-24T13:15:11.853Z,25664
2016-09-24T13:16:12.215Z,5344
2016-09-24T13:17:11.972Z,29600
2016-09-24T13:18:12.019Z,3308
2016-09-24T13:19:12.091Z,5204
2016-09-24T13:20:12.151Z,24448
2016-09-24T13:21:12.220Z,23168
2016-09-24T13:22:12.257Z,25216
2016-09-24T13:23:12.337Z,25632
2016-09-24T13:24:12.361Z,24576
2016-09-24T13:25:12.439Z,23840
2016-09-24T13:26:12.497Z,23424
2016-09-24T13:27:12.566Z,3140
2016-09-24T13:28:12.648Z,24320
2016-09-24T13:29:12.712Z,16888
2016-09-24T13:30:12.745Z,16412
2016-09-24T13:31:12.790Z,20320
2016-09-24T13:32:12.863Z,20672
2016-09-24T13:33:12.929Z,21056
2016-09-24T13:34:12.994Z,14808
2016-09-24T13:35:13.028Z,19552
2016-09-24T13:36:13.100Z,21440
2016-09-24T13:37:13.147Z,2252
2016-09-24T13:38:13.188Z,5124
2016-09-24T13:39:13.251Z,19968
2016-09-24T13:40:13.338Z,19040
2016-09-24T13:41:13.377Z,9692
2016-09-24T13:42:13.443Z,2204
2016-09-24T13:43:13.502Z,16112
2016-09-24T13:44:13.550Z,14760
2016-09-24T13:45:13.610Z,9532
2016-09-24T13:46:13.666Z,7540
2016-09-24T13:47:13.724Z,6524
2016-09-24T13:48:13.760Z,5608
2016-09-24T13:49:13.827Z,4924